Time;durP1;ratioP1;P1;durP2;ratioP2;P2;SDS_P1;SDS_P2;PMS_P1;PMS_P2;Temp;Humidity;BMP_temperature;BMP_pressure;BME280_temperature;BME280_humidity;BME280_pressure;Samples;Min_cycle;Max_cycle;Signal;HPM_P1;HPM_P2
2022/07/02 00:00:55;;;;;;;8.80;4.32;;;14.80;82.80;;;;;;5053373;28;20021;-38
2022/07/02 00:03:34;;;;;;;5.63;3.47;;;14.90;82.80;;;;;;5053226;28;20028;-37
2022/07/02 00:06:01;;;;;;;6.90;4.38;;;14.80;82.80;;;;;;5053549;28;20025;-37
2022/07/02 00:08:28;;;;;;;4.90;3.75;;;14.80;83.10;;;;;;5051854;28;20056;-38
2022/07/02 00:10:56;;;;;;;9.82;3.47;;;14.80;83.20;;;;;;5053393;28;20055;-40
2022/07/02 00:13:23;;;;;;;6.47;3.67;;;14.80;83.40;;;;;;5052261;28;20107;-38
2022/07/02 00:15:49;;;;;;;6.55;3.50;;;14.80;83.40;;;;;;5053682;28;20021;-39
2022/07/02 00:18:16;;;;;;;8.52;4.20;;;14.70;83.60;;;;;;5053104;28;20041;-38
2022/07/02 00:20:46;;;;;;;4.70;2.97;;;14.70;83.70;;;;;;5053235;28;20029;-37
2022/07/02 00:23:12;;;;;;;6.43;3.38;;;14.60;83.70;;;;;;5052061;28;20044;-38
2022/07/02 00:25:44;;;;;;;5.70;3.90;;;14.60;83.80;;;;;;5051639;28;20392;-36
2022/07/02 00:28:17;;;;;;;8.35;4.03;;;14.60;83.90;;;;;;5053186;28;20033;-39
2022/07/02 00:30:46;;;;;;;5.28;3.35;;;14.50;84.00;;;;;;5053029;28;20036;-38
2022/07/02 00:33:16;;;;;;;6.72;3.83;;;14.60;84.10;;;;;;5053127;28;20029;-37
2022/07/02 00:35:43;;;;;;;5.32;3.22;;;14.60;84.20;;;;;;5051757;28;20082;-38
2022/07/02 00:38:09;;;;;;;6.05;3.22;;;14.60;84.00;;;;;;5053021;28;20036;-36
2022/07/02 00:40:35;;;;;;;7.53;4.20;;;14.60;84.00;;;;;;5052955;28;20024;-36
2022/07/02 00:43:02;;;;;;;8.73;3.67;;;14.60;84.10;;;;;;5053090;28;20075;-36
2022/07/02 00:45:28;;;;;;;4.28;3.47;;;14.40;84.10;;;;;;5035527;28;20021;-37
2022/07/02 00:47:55;;;;;;;4.30;3.72;;;14.40;84.40;;;;;;5052770;28;20025;-37
2022/07/02 00:50:22;;;;;;;5.25;3.20;;;14.30;84.40;;;;;;5053095;28;20418;-37
2022/07/02 00:52:48;;;;;;;4.20;3.08;;;14.30;84.70;;;;;;5051347;28;20029;-36
2022/07/02 00:55:14;;;;;;;9.93;3.75;;;14.30;84.90;;;;;;5052617;28;20357;-36
2022/07/02 00:57:40;;;;;;;5.60;3.25;;;14.20;85.10;;;;;;5052756;28;20040;-37
2022/07/02 01:00:09;;;;;;;3.80;3.00;;;14.20;85.20;;;;;;5052803;28;20029;-39
2022/07/02 01:02:36;;;;;;;9.98;3.90;;;14.30;85.20;;;;;;5052788;28;20057;-37
2022/07/02 01:05:02;;;;;;;6.32;3.38;;;14.20;85.20;;;;;;5053202;28;20018;-37
2022/07/02 01:07:29;;;;;;;4.82;2.97;;;14.20;85.10;;;;;;5055718;28;20461;-37
2022/07/02 01:12:44;;;;;;;6.15;3.80;;;14.30;85.20;;;;;;5056925;28;20082;-36
2022/07/02 01:15:10;;;;;;;6.68;3.38;;;14.30;85.10;;;;;;5056177;28;20481;-37
2022/07/02 01:17:36;;;;;;;6.55;4.22;;;14.20;85.10;;;;;;5056053;28;20025;-37
2022/07/02 01:20:03;;;;;;;4.93;3.60;;;14.20;85.30;;;;;;5056319;28;20124;-39
2022/07/02 01:22:36;;;;;;;8.02;3.85;;;14.20;85.30;;;;;;5056453;28;20072;-37
2022/07/02 01:25:02;;;;;;;4.40;3.30;;;14.20;85.10;;;;;;5056001;28;20017;-40
2022/07/02 01:27:28;;;;;;;9.65;4.32;;;14.20;85.10;;;;;;5054551;28;20021;-37
2022/07/02 01:29:54;;;;;;;10.95;3.90;;;14.20;85.40;;;;;;5056849;28;20527;-37
2022/07/02 01:32:20;;;;;;;5.22;3.67;;;14.10;85.40;;;;;;5056024;28;20029;-37
2022/07/02 01:34:49;;;;;;;4.03;3.17;;;14.10;85.50;;;;;;5055890;28;20029;-37
2022/07/02 01:37:17;;;;;;;4.57;3.45;;;14.10;85.50;;;;;;5056025;28;20074;-37
2022/07/02 01:39:44;;;;;;;7.40;4.35;;;14.00;85.30;;;;;;5055449;28;20025;-46
2022/07/02 01:42:11;;;;;;;6.00;3.70;;;14.00;85.20;;;;;;5056039;28;20096;-37
2022/07/02 01:44:38;;;;;;;5.82;3.75;;;13.90;85.30;;;;;;5055601;28;20024;-37
2022/07/02 01:47:06;;;;;;;5.80;4.40;;;13.90;85.50;;;;;;5055967;28;20078;-37
2022/07/02 01:49:32;;;;;;;8.60;3.35;;;13.90;85.50;;;;;;5056040;28;20021;-37
2022/07/02 01:51:57;;;;;;;5.78;4.32;;;13.80;85.70;;;;;;5055684;28;20032;-37
2022/07/02 01:54:23;;;;;;;5.43;3.58;;;13.80;85.90;;;;;;5055489;28;20029;-37
2022/07/02 01:56:49;;;;;;;10.43;3.60;;;13.80;86.10;;;;;;5055471;28;20108;-37
2022/07/02 01:59:14;;;;;;;5.13;3.35;;;13.80;86.10;;;;;;5055162;28;20025;-38
2022/07/02 02:01:41;;;;;;;4.97;3.15;;;13.80;86.10;;;;;;5056120;28;20079;-37
2022/07/02 02:04:07;;;;;;;3.45;2.88;;;13.80;86.10;;;;;;5053998;28;20035;-38
2022/07/02 02:06:32;;;;;;;4.80;2.75;;;13.80;86.00;;;;;;5055566;28;20025;-37
2022/07/02 02:08:58;;;;;;;7.18;3.50;;;13.80;86.10;;;;;;5055428;28;20033;-38
2022/07/02 02:11:24;;;;;;;4.85;3.30;;;13.80;86.30;;;;;;5055724;28;20025;-37
2022/07/02 02:13:50;;;;;;;6.95;3.70;;;13.80;86.30;;;;;;5055933;28;20345;-37
2022/07/02 02:16:16;;;;;;;10.70;3.78;;;13.80;86.30;;;;;;5054895;28;20029;-38
2022/07/02 02:18:42;;;;;;;8.75;3.50;;;13.70;86.20;;;;;;5054812;28;20128;-38
2022/07/02 02:21:07;;;;;;;7.00;3.65;;;13.70;86.30;;;;;;5055416;28;20028;-38
2022/07/02 02:23:33;;;;;;;5.00;2.90;;;13.70;86.40;;;;;;5055124;28;20051;-36
2022/07/02 02:25:59;;;;;;;9.30;3.50;;;13.80;86.40;;;;;;5054915;28;20377;-37
2022/07/02 02:28:25;;;;;;;5.32;3.50;;;13.80;86.30;;;;;;5055013;28;20106;-38
2022/07/02 02:30:50;;;;;;;10.45;4.20;;;13.80;86.30;;;;;;5054791;28;20036;-37
2022/07/02 02:33:16;;;;;;;5.20;4.05;;;13.80;86.20;;;;;;5055137;28;20500;-37
2022/07/02 02:35:42;;;;;;;6.18;3.80;;;13.80;86.20;;;;;;5055037;28;20025;-37
2022/07/02 02:38:07;;;;;;;5.93;4.15;;;13.70;86.10;;;;;;5054707;28;20029;-37
2022/07/02 02:40:33;;;;;;;6.25;3.78;;;13.60;86.10;;;;;;5054856;28;20023;-37
2022/07/02 02:42:58;;;;;;;5.70;3.20;;;13.70;86.20;;;;;;5054586;28;20092;-37
2022/07/02 02:45:24;;;;;;;5.05;3.92;;;13.60;86.30;;;;;;5054802;28;20027;-38
2022/07/02 02:47:50;;;;;;;6.78;4.30;;;13.60;86.30;;;;;;5054510;28;20056;-37
2022/07/02 02:50:15;;;;;;;5.90;4.10;;;13.60;86.20;;;;;;5054794;28;20035;-38
2022/07/02 02:52:41;;;;;;;5.53;3.40;;;13.60;86.20;;;;;;5054433;28;20035;-37
2022/07/02 02:55:07;;;;;;;7.15;3.47;;;13.50;86.30;;;;;;5054353;28;20032;-36
2022/07/02 02:57:33;;;;;;;9.88;4.07;;;13.50;86.40;;;;;;5054246;28;20036;-37
2022/07/02 20:15:26;;;;;;;2.55;1.30;;;23.80;43.50;;;;;;5133014;27;20391;-38
2022/07/02 20:17:55;;;;;;;2.20;1.50;;;23.80;43.80;;;;;;5132400;28;20388;-37
2022/07/02 20:20:22;;;;;;;2.10;1.33;;;23.80;43.90;;;;;;5130335;28;20027;-38
2022/07/02 20:22:48;;;;;;;3.78;1.40;;;23.80;44.20;;;;;;5131821;27;20029;-38
2022/07/02 20:25:14;;;;;;;1.67;1.52;;;23.70;44.50;;;;;;5131580;28;20106;-38
2022/07/02 20:27:40;;;;;;;2.95;1.10;;;23.60;44.60;;;;;;5131615;28;20424;-37
2022/07/02 20:30:09;;;;;;;1.05;0.90;;;23.60;44.70;;;;;;5131941;28;20027;-38
2022/07/02 20:32:35;;;;;;;1.70;1.40;;;23.50;44.80;;;;;;5130896;28;20055;-38
2022/07/02 20:35:02;;;;;;;5.50;1.85;;;23.50;45.20;;;;;;5131108;27;20024;-37
2022/07/02 20:37:30;;;;;;;3.13;1.45;;;23.40;45.30;;;;;;5131431;28;20031;-39
2022/07/02 20:39:57;;;;;;;4.07;1.25;;;23.40;45.50;;;;;;5131713;28;20114;-38
2022/07/02 20:42:23;;;;;;;2.00;1.30;;;23.30;45.60;;;;;;5131056;28;20023;-38
2022/07/02 20:44:48;;;;;;;1.95;1.20;;;23.30;45.70;;;;;;5131250;27;20114;-42
2022/07/02 20:47:15;;;;;;;2.42;1.20;;;23.20;45.70;;;;;;5130893;27;20089;-38
2022/07/02 20:49:40;;;;;;;2.30;1.50;;;23.20;46.00;;;;;;5130640;27;20039;-38
2022/07/02 20:52:06;;;;;;;3.33;1.67;;;23.20;46.00;;;;;;5130652;28;20074;-38
2022/07/02 20:54:32;;;;;;;6.35;1.65;;;23.10;46.20;;;;;;5129530;28;20059;-41
2022/07/02 20:56:57;;;;;;;8.65;2.50;;;23.00;46.50;;;;;;5130519;27;20034;-38
2022/07/02 20:59:26;;;;;;;3.00;1.50;;;23.10;46.70;;;;;;5130619;28;20061;-38
2022/07/02 21:01:52;;;;;;;1.30;1.15;;;22.90;47.00;;;;;;5130560;27;20016;-37
2022/07/02 21:04:18;;;;;;;3.67;1.70;;;22.90;47.00;;;;;;5130806;27;20038;-38
2022/07/02 21:06:43;;;;;;;2.00;1.73;;;22.90;47.20;;;;;;5130739;27;20030;-37
2022/07/02 21:09:10;;;;;;;4.43;2.28;;;22.80;47.60;;;;;;5129875;28;20033;-38
2022/07/02 21:11:36;;;;;;;3.10;1.60;;;22.80;47.80;;;;;;5130672;27;20042;-38
2022/07/02 21:14:03;;;;;;;7.10;1.98;;;22.80;47.90;;;;;;5130647;27;20156;-37
2022/07/02 21:16:28;;;;;;;2.45;1.55;;;22.70;48.10;;;;;;5130743;27;20020;-38
2022/07/02 21:18:54;;;;;;;1.52;0.93;;;22.60;48.50;;;;;;5130958;28;20031;-37
2022/07/02 21:21:20;;;;;;;2.72;1.63;;;22.50;48.50;;;;;;5130535;28;20023;-37
2022/07/02 21:23:45;;;;;;;3.20;1.42;;;22.50;48.50;;;;;;5131168;28;20481;-39
2022/07/02 21:26:11;;;;;;;7.18;1.92;;;22.50;48.50;;;;;;5120206;27;20032;-38
2022/07/02 21:28:37;;;;;;;8.07;2.05;;;22.40;48.50;;;;;;5116840;28;20634;-38
2022/07/02 21:31:03;;;;;;;3.63;1.50;;;22.40;48.70;;;;;;5116736;28;20058;-37
2022/07/02 21:33:31;;;;;;;4.82;1.92;;;22.30;49.00;;;;;;5116621;28;20117;-38
2022/07/02 21:35:58;;;;;;;3.45;2.08;;;22.30;49.20;;;;;;5116610;28;20479;-38
2022/07/02 21:38:24;;;;;;;7.30;2.38;;;22.30;49.30;;;;;;5116376;28;20522;-38
2022/07/02 21:40:50;;;;;;;4.05;1.95;;;22.30;49.50;;;;;;5116648;28;20091;-37
2022/07/02 21:43:15;;;;;;;1.88;1.48;;;22.20;49.70;;;;;;5116120;28;20494;-38
2022/07/02 21:45:41;;;;;;;2.95;1.80;;;22.20;50.10;;;;;;5116078;28;20022;-39
2022/07/02 21:48:07;;;;;;;2.85;2.03;;;22.10;50.10;;;;;;5116269;28;20123;-37
2022/07/02 21:50:33;;;;;;;2.40;1.77;;;22.10;50.50;;;;;;5116636;28;20351;-38
2022/07/02 21:52:58;;;;;;;4.97;1.90;;;22.00;50.70;;;;;;5114627;28;20028;-38
2022/07/02 21:55:27;;;;;;;3.80;1.88;;;22.00;50.80;;;;;;5115858;28;20072;-39
2022/07/02 21:57:52;;;;;;;4.47;2.20;;;21.80;51.30;;;;;;5115758;28;20015;-38
2022/07/02 22:00:18;;;;;;;5.72;2.03;;;21.80;51.50;;;;;;5116204;28;20020;-37
2022/07/02 22:02:45;;;;;;;4.63;1.85;;;21.80;51.50;;;;;;5114997;28;20020;-38
2022/07/02 22:05:11;;;;;;;3.90;2.20;;;21.70;51.90;;;;;;5116080;28;20035;-38
2022/07/02 22:07:36;;;;;;;2.97;1.60;;;21.60;52.20;;;;;;5115778;28;20049;-38
2022/07/02 22:10:03;;;;;;;3.15;1.67;;;21.60;52.40;;;;;;5115794;28;20066;-38
2022/07/02 22:12:31;;;;;;;3.80;1.80;;;21.50;52.70;;;;;;5116122;27;20019;-38
2022/07/02 22:14:57;;;;;;;2.65;1.90;;;21.40;52.70;;;;;;5115217;28;20051;-38
2022/07/02 22:17:23;;;;;;;2.88;1.60;;;21.40;52.80;;;;;;5115846;27;20023;-38
2022/07/02 22:19:48;;;;;;;2.10;1.58;;;21.30;53.30;;;;;;5115698;28;20020;-38
2022/07/02 22:22:14;;;;;;;4.20;2.05;;;21.30;53.40;;;;;;5115452;28;20031;-38
2022/07/02 22:24:40;;;;;;;7.57;1.95;;;21.30;53.30;;;;;;5115504;28;20479;-38
2022/07/02 22:27:05;;;;;;;3.60;1.77;;;21.40;52.70;;;;;;5115444;28;20026;-38
2022/07/02 22:29:31;;;;;;;6.75;2.22;;;21.40;52.60;;;;;;5115631;28;20028;-38
2022/07/02 22:31:57;;;;;;;6.85;2.30;;;21.40;52.60;;;;;;5115291;28;20027;-37
2022/07/02 22:34:22;;;;;;;5.78;1.92;;;21.30;52.60;;;;;;5115915;28;20027;-37
2022/07/02 22:36:50;;;;;;;5.53;2.13;;;21.30;52.50;;;;;;5113281;28;20020;-37
2022/07/02 22:39:18;;;;;;;4.03;2.00;;;21.30;52.40;;;;;;5114031;28;20019;-37
2022/07/02 22:41:44;;;;;;;4.90;2.28;;;21.30;52.50;;;;;;5115455;28;20012;-37
2022/07/02 22:44:09;;;;;;;3.53;2.15;;;21.40;52.20;;;;;;5115446;28;20024;-38
2022/07/02 22:46:35;;;;;;;3.78;2.05;;;21.40;52.20;;;;;;5115068;28;20027;-37
2022/07/02 22:49:01;;;;;;;6.95;1.95;;;21.40;52.20;;;;;;5116580;28;20023;-37
2022/07/02 22:51:26;;;;;;;6.40;1.60;;;21.40;52.20;;;;;;5116471;28;20043;-38
2022/07/02 22:53:56;;;;;;;2.83;1.63;;;21.40;52.30;;;;;;5116834;28;20030;-38
2022/07/02 22:56:22;;;;;;;3.75;1.67;;;21.50;52.50;;;;;;5115176;28;20117;-38
2022/07/02 22:58:48;;;;;;;3.75;1.83;;;21.40;52.70;;;;;;5114251;28;20027;-38
2022/07/02 23:01:13;;;;;;;8.23;3.40;;;21.30;53.80;;;;;;5113615;28;20368;-37
2022/07/02 23:03:39;;;;;;;2.97;2.17;;;21.30;54.60;;;;;;5114897;28;20032;-39
2022/07/02 23:06:07;;;;;;;6.95;2.15;;;21.10;54.70;;;;;;5114627;28;20034;-38
2022/07/02 23:08:33;;;;;;;8.63;2.10;;;21.10;54.70;;;;;;5115097;28;20098;-38
2022/07/02 23:10:59;;;;;;;3.05;2.00;;;21.00;55.10;;;;;;5113764;28;20051;-37
2022/07/02 23:13:24;;;;;;;4.05;2.22;;;20.80;55.50;;;;;;5114834;28;20444;-37
2022/07/02 23:15:52;;;;;;;5.78;2.35;;;20.80;55.70;;;;;;5114762;28;20020;-37
2022/07/02 23:18:18;;;;;;;3.00;2.08;;;20.80;55.70;;;;;;5113208;28;20027;-37
2022/07/02 23:20:44;;;;;;;8.77;2.33;;;20.80;55.60;;;;;;5113367;28;20380;-38
2022/07/02 23:23:10;;;;;;;3.70;2.83;;;21.10;54.60;;;;;;5114614;28;20020;-38
2022/07/02 23:25:36;;;;;;;4.07;2.03;;;21.10;54.80;;;;;;5114675;28;20016;-38
2022/07/02 23:28:02;;;;;;;5.47;2.60;;;21.10;54.70;;;;;;5113111;28;20016;-36
2022/07/02 23:30:28;;;;;;;6.97;2.17;;;21.00;54.70;;;;;;5114256;28;20136;-38
2022/07/02 23:32:53;;;;;;;3.40;2.03;;;21.00;55.10;;;;;;5114098;28;20037;-38
2022/07/02 23:35:19;;;;;;;3.03;1.63;;;21.10;54.80;;;;;;5113952;28;20055;-38
2022/07/02 23:37:45;;;;;;;3.40;1.48;;;21.00;54.40;;;;;;5113951;28;20062;-37
2022/07/02 23:40:13;;;;;;;3.22;1.52;;;20.90;55.90;;;;;;5114241;28;20099;-38
2022/07/02 23:42:38;;;;;;;4.22;1.55;;;20.80;54.40;;;;;;5114339;28;20047;-38
2022/07/02 23:45:06;;;;;;;7.53;2.10;;;20.80;54.60;;;;;;5114174;28;20062;-37
2022/07/02 23:47:32;;;;;;;2.42;1.67;;;20.80;54.70;;;;;;5112680;28;20453;-43
2022/07/02 23:49:58;;;;;;;4.57;2.08;;;20.80;54.60;;;;;;5113623;28;20023;-37
2022/07/02 23:52:24;;;;;;;3.30;1.75;;;20.80;54.50;;;;;;5113940;28;20035;-38
2022/07/02 23:54:50;;;;;;;5.57;1.75;;;20.70;54.70;;;;;;5114007;28;20072;-37
2022/07/02 23:57:16;;;;;;;3.83;1.33;;;20.60;54.80;;;;;;5113927;28;20107;-37
2022/07/02 23:59:42;;;;;;;2.60;1.77;;;20.40;55.30;;;;;;5113858;28;20031;-38
